This is the latest recevied weather packets stored in our database for station/object EA1GGY-1. If no packets are shown the sender has not sent any weather packets the latest 10 day(s).
| Time | Temp. | Humidity | Pressure | Rain* | Wind** | Luminosity | Snow |
|---|---|---|---|---|---|---|---|
| 1778075963 | 11.11° C | 67% | 1008.5 hPa | - | - | - | - |
| 1778075363 | 12.78° C | 54% | 1008.3 hPa | - | - | - | - |
| 1778074762 | 13.33° C | 54% | 1008.2 hPa | - | - | - | - |
| 1778074161 | 13.33° C | 54% | 1008.2 hPa | - | - | - | - |
| 1778073560 | 13.89° C | 54% | 1008.2 hPa | - | - | - | - |
| 1778072959 | 12.78° C | 59% | 1008.4 hPa | - | - | - | - |
| 1778072359 | 12.22° C | 58% | 1008.5 hPa | - | - | - | - |
| 1778071758 | 12.22° C | 55% | 1008.4 hPa | - | - | - | - |
| 1778071157 | 12.22° C | 55% | 1008.5 hPa | - | - | - | - |
| 1778070557 | 12.78° C | 54% | 1008.4 hPa | - | - | - | - |
| 1778069955 | 12.22° C | 54% | 1008.5 hPa | - | - | - | - |
| 1778069356 | 12.22° C | 55% | 1008.5 hPa | - | - | - | - |
| 1778068754 | 12.22° C | 55% | 1008.5 hPa | - | - | - | - |
| 1778068153 | 12.22° C | 55% | 1008.6 hPa | - | - | - | - |
| 1778067552 | 12.22° C | 56% | 1008.6 hPa | - | - | - | - |
| 1778066953 | 12.78° C | 54% | 1008.7 hPa | - | - | - | - |
| 1778066350 | 12.78° C | 54% | 1008.7 hPa | - | - | - | - |
| 1778065749 | 13.33° C | 53% | 1008.7 hPa | - | - | - | - |
| 1778065148 | 12.78° C | 53% | 1008.7 hPa | - | - | - | - |
| 1778064547 | 14.44° C | 51% | 1008.7 hPa | - | - | - | - |
| 1778063947 | 15° C | 52% | 1008.8 hPa | - | - | - | - |
| 1778063347 | 13.33° C | 49% | 1008.9 hPa | - | - | - | - |
| 1778062745 | 11.67° C | 54% | 1008.9 hPa | - | - | - | - |
| 1778062144 | 12.22° C | 55% | 1008.9 hPa | - | - | - | - |
| 1778061544 | 11.67° C | 56% | 1008.9 hPa | - | - | - | - |
* Rain since midnight (hover to see other rain measurements)
** Current wind speed in m/s (hover to see current wind gust speed)